createdAt,value
2023-04-23T00:04:53.136Z,91.53
2023-04-23T00:09:58.290Z,91.32
2023-04-23T00:15:02.110Z,91.07
2023-04-23T00:20:06.655Z,90.73
2023-04-23T00:25:11.182Z,91.08
2023-04-23T00:30:14.733Z,91.10
2023-04-23T00:35:18.959Z,90.91
2023-04-23T00:40:23.847Z,90.83
2023-04-23T00:45:27.321Z,90.76
2023-04-23T00:50:31.003Z,90.67
2023-04-23T00:55:36.459Z,90.41
2023-04-23T01:00:46.693Z,90.22
2023-04-23T01:05:51.016Z,89.99
2023-04-23T01:10:56.566Z,89.76
2023-04-23T01:15:59.834Z,89.80
2023-04-23T01:21:06.547Z,89.12
2023-04-23T01:26:11.028Z,88.88
2023-04-23T01:31:14.965Z,88.56
2023-04-23T01:36:20.588Z,88.05
2023-04-23T01:41:24.201Z,88.11
2023-04-23T01:46:29.183Z,87.90
2023-04-23T01:51:32.348Z,88.13
2023-04-23T01:56:36.661Z,87.67
2023-04-23T02:01:45.823Z,87.83
2023-04-23T02:06:51.965Z,88.06
2023-04-23T02:11:55.575Z,87.86
2023-04-23T02:16:58.693Z,87.97
2023-04-23T02:22:02.175Z,87.43
2023-04-23T02:27:06.015Z,86.89
2023-04-23T02:32:09.855Z,87.18
2023-04-23T02:37:13.614Z,87.62
2023-04-23T02:42:16.921Z,88.03
2023-04-23T02:47:20.238Z,88.60
2023-04-23T02:52:24.182Z,88.30
2023-04-23T02:57:27.330Z,88.55
2023-04-23T03:02:31.012Z,88.45
2023-04-23T03:07:34.763Z,87.78
2023-04-23T03:12:38.481Z,87.47
2023-04-23T03:17:42.843Z,87.26
2023-04-23T03:22:47.303Z,87.32
2023-04-23T03:27:51.512Z,87.89
2023-04-23T03:32:58.775Z,88.39
2023-04-23T03:38:03.024Z,87.98
2023-04-23T03:43:06.803Z,87.26
2023-04-23T03:48:30.506Z,86.26
2023-04-23T03:53:36.538Z,85.76
2023-04-23T03:58:58.708Z,85.76
2023-04-23T04:04:03.594Z,85.67
2023-04-23T04:09:09.111Z,85.69
2023-04-23T04:14:14.145Z,86.33
2023-04-23T04:19:17.464Z,85.58
2023-04-23T04:24:23.770Z,85.37
2023-04-23T04:29:28.909Z,85.22
2023-04-23T04:34:32.971Z,84.95
2023-04-23T04:39:36.280Z,84.07
2023-04-23T04:44:40.680Z,83.61
2023-04-23T04:49:43.832Z,82.76
2023-04-23T04:54:47.367Z,82.36
2023-04-23T04:59:50.909Z,82.47
2023-04-23T05:04:54.363Z,82.87
2023-04-23T05:09:58.381Z,81.75
2023-04-23T05:15:01.848Z,81.27
2023-04-23T05:20:06.531Z,82.15
2023-04-23T05:25:14.874Z,83.29
2023-04-23T05:30:18.945Z,83.36
2023-04-23T05:35:22.197Z,84.08
2023-04-23T05:40:28.241Z,81.93
2023-04-23T05:45:31.713Z,77.43
2023-04-23T05:50:36.030Z,70.67
2023-04-23T05:55:39.878Z,67.14
2023-04-23T06:00:43.911Z,63.86
2023-04-23T06:05:47.412Z,63.09
2023-04-23T06:10:50.691Z,57.12
2023-04-23T06:15:53.920Z,56.88
2023-04-23T06:20:58.323Z,50.96
2023-04-23T06:26:01.401Z,41.08
2023-04-23T06:31:05.988Z,45.78
2023-04-23T06:36:12.594Z,44.43
2023-04-23T06:41:16.527Z,38.00
2023-04-23T06:46:19.644Z,43.07
2023-04-23T06:51:27.305Z,42.58
2023-04-23T06:56:30.838Z,41.92
2023-04-23T07:01:35.609Z,40.04
2023-04-23T07:06:39.202Z,35.97
2023-04-23T07:11:43.075Z,34.50
2023-04-23T07:16:47.005Z,32.88
2023-04-23T07:21:50.147Z,31.97
2023-04-23T07:26:53.361Z,35.35
2023-04-23T07:31:56.885Z,32.39
2023-04-23T07:37:00.227Z,32.94
2023-04-23T07:42:03.918Z,34.60
2023-04-23T07:47:08.114Z,33.38
2023-04-23T07:52:12.097Z,31.96
2023-04-23T07:57:15.313Z,35.83
2023-04-23T08:02:23.955Z,31.13
2023-04-23T08:07:27.707Z,30.38
2023-04-23T08:12:31.603Z,33.59
2023-04-23T08:17:35.837Z,33.85
2023-04-23T08:22:39.850Z,31.75
2023-04-23T08:27:43.068Z,32.11
2023-04-23T08:32:55.691Z,32.83
2023-04-23T08:37:58.863Z,33.49
2023-04-23T08:43:03.693Z,35.71
2023-04-23T08:48:07.228Z,33.80
2023-04-23T08:53:11.148Z,35.88
2023-04-23T08:58:15.251Z,36.55
2023-04-23T09:03:21.141Z,35.14
2023-04-23T09:08:25.271Z,33.52
2023-04-23T09:13:32.178Z,34.65
2023-04-23T09:18:36.085Z,33.61
2023-04-23T09:23:41.626Z,34.22
2023-04-23T09:28:47.473Z,32.00
2023-04-23T09:33:53.841Z,32.44
2023-04-23T09:38:57.957Z,30.06
2023-04-23T09:44:01.068Z,31.51
2023-04-23T09:49:08.198Z,32.98
2023-04-23T09:54:21.951Z,31.81
2023-04-23T10:04:35.148Z,30.03
2023-04-23T10:09:39.367Z,33.74
2023-04-23T10:14:43.800Z,30.37
2023-04-23T10:19:49.659Z,29.59
2023-04-23T10:24:59.192Z,30.42
2023-04-23T10:30:05.431Z,31.12
2023-04-23T10:35:11.154Z,30.46
2023-04-23T10:40:19.599Z,30.99
2023-04-23T10:45:25.186Z,31.86
2023-04-23T10:50:31.389Z,30.55
2023-04-23T10:55:35.330Z,29.98
2023-04-23T11:00:47.250Z,30.35
2023-04-23T11:05:50.834Z,27.59
2023-04-23T11:10:59.941Z,29.02
2023-04-23T11:16:22.395Z,29.98
2023-04-23T11:22:03.955Z,29.95
2023-04-23T11:27:10.394Z,29.41
2023-04-23T11:32:17.796Z,28.03
2023-04-23T11:37:21.691Z,27.90
2023-04-23T11:42:26.208Z,30.23
2023-04-23T11:47:30.689Z,31.39
2023-04-23T11:52:34.207Z,26.25
2023-04-23T11:57:42.063Z,29.29
2023-04-23T12:03:00.108Z,29.34
2023-04-23T12:08:16.726Z,31.71
2023-04-23T12:13:24.476Z,28.89
2023-04-23T12:18:32.462Z,28.64
2023-04-23T12:23:38.760Z,28.98
2023-04-23T12:28:52.088Z,28.99
2023-04-23T12:34:17.746Z,29.68
2023-04-23T12:39:27.529Z,30.19
2023-04-23T12:44:33.763Z,32.11
2023-04-23T12:49:39.981Z,28.74
2023-04-23T12:54:45.190Z,30.02
2023-04-23T12:59:48.765Z,28.35
2023-04-23T13:04:52.712Z,30.04
2023-04-23T13:09:57.484Z,27.92
2023-04-23T13:15:01.223Z,28.10
2023-04-23T13:20:05.781Z,29.59
2023-04-23T13:25:09.631Z,30.08
2023-04-23T13:30:14.154Z,29.18
2023-04-23T13:35:17.948Z,29.06
2023-04-23T13:40:21.562Z,29.34
2023-04-23T13:45:26.739Z,30.37
2023-04-23T13:50:30.244Z,29.38
2023-04-23T13:55:33.291Z,32.05
2023-04-23T14:00:36.785Z,30.46
2023-04-23T14:05:40.272Z,31.11
2023-04-23T14:10:44.482Z,31.84
2023-04-23T14:15:48.029Z,31.23
2023-04-23T14:20:52.307Z,32.23
2023-04-23T14:32:43.343Z,31.86
2023-04-23T14:37:47.160Z,31.64
2023-04-23T14:42:50.728Z,34.53
2023-04-23T14:47:54.302Z,33.54
2023-04-23T14:52:59.108Z,33.54
2023-04-23T14:58:02.452Z,35.23
2023-04-23T15:03:11.338Z,34.49
2023-04-23T15:08:15.077Z,33.83
2023-04-23T15:13:56.683Z,33.82
2023-04-23T15:19:03.279Z,33.35
2023-04-23T15:24:08.166Z,33.33
2023-04-23T15:29:14.042Z,33.52
2023-04-23T15:34:18.101Z,32.27
2023-04-23T15:39:22.479Z,34.38
2023-04-23T15:44:26.788Z,34.56
2023-04-23T15:49:30.664Z,34.90
2023-04-23T15:54:34.255Z,37.01
2023-04-23T15:59:37.848Z,37.42
2023-04-23T16:04:42.576Z,38.39
2023-04-23T16:09:46.985Z,39.46
2023-04-23T16:14:50.907Z,41.22
2023-04-23T16:19:54.522Z,42.97
2023-04-23T16:24:57.640Z,44.28
2023-04-23T16:30:01.856Z,47.40
2023-04-23T16:35:05.981Z,47.15
2023-04-23T16:40:10.632Z,48.71
2023-04-23T16:45:15.173Z,49.20
2023-04-23T16:50:18.978Z,50.15
2023-04-23T16:55:22.314Z,51.00
2023-04-23T17:00:25.986Z,52.41
2023-04-23T17:05:33.232Z,53.67
2023-04-23T17:10:37.132Z,56.72
2023-04-23T17:15:41.153Z,56.39
2023-04-23T17:20:45.122Z,57.52
2023-04-23T17:25:48.589Z,57.84
2023-04-23T17:30:54.084Z,60.35
2023-04-23T17:35:58.095Z,59.71
2023-04-23T17:41:01.420Z,62.21
2023-04-23T17:46:05.432Z,63.44
2023-04-23T17:51:10.435Z,63.76
2023-04-23T17:56:16.147Z,64.82
2023-04-23T18:01:19.841Z,66.05
2023-04-23T18:06:23.496Z,65.17
2023-04-23T18:11:27.042Z,66.65
2023-04-23T18:16:30.490Z,67.82
2023-04-23T18:21:34.393Z,68.27
2023-04-23T18:26:37.552Z,67.71
2023-04-23T18:31:41.767Z,62.93
2023-04-23T18:36:49.203Z,63.34
2023-04-23T18:41:53.152Z,62.37
2023-04-23T18:46:56.981Z,63.38
2023-04-23T18:52:00.872Z,66.19
2023-04-23T18:57:04.455Z,65.86
2023-04-23T19:02:09.098Z,65.13
2023-04-23T19:07:12.878Z,63.89
2023-04-23T19:12:17.435Z,60.22
2023-04-23T19:17:22.238Z,58.67
2023-04-23T19:22:26.066Z,58.59
2023-04-23T19:27:29.739Z,58.33
2023-04-23T19:32:36.780Z,58.11
2023-04-23T19:37:40.632Z,57.93
2023-04-23T19:42:44.567Z,58.22
2023-04-23T19:47:48.539Z,58.27
2023-04-23T19:52:52.878Z,58.76
2023-04-23T19:57:57.427Z,58.83
2023-04-23T20:03:01.145Z,59.66
2023-04-23T20:08:11.521Z,60.13
2023-04-23T20:13:15.648Z,60.05
2023-04-23T20:18:19.408Z,61.41
2023-04-23T20:23:23.703Z,60.72
2023-04-23T20:28:28.273Z,61.54
2023-04-23T20:33:33.092Z,61.91
2023-04-23T20:38:38.316Z,62.57
2023-04-23T20:43:43.676Z,62.74
2023-04-23T20:48:50.415Z,63.65
2023-04-23T20:53:54.611Z,63.87
2023-04-23T20:58:58.586Z,65.38
2023-04-23T21:04:02.103Z,65.90
2023-04-23T21:09:06.085Z,67.05
2023-04-23T21:14:10.339Z,67.22
2023-04-23T21:19:13.827Z,68.08
2023-04-23T21:24:18.061Z,66.94
2023-04-23T21:29:21.621Z,66.93
2023-04-23T21:34:25.638Z,68.40
2023-04-23T21:39:29.153Z,69.28
2023-04-23T21:44:33.235Z,69.10
2023-04-23T21:49:37.279Z,69.38
2023-04-23T21:54:40.341Z,70.83
2023-04-23T21:59:44.073Z,71.79
2023-04-23T22:04:48.487Z,72.36
2023-04-23T22:09:51.689Z,72.98
2023-04-23T22:14:55.830Z,73.13
2023-04-23T22:19:59.849Z,74.39
2023-04-23T22:25:06.739Z,75.37
2023-04-23T22:30:11.776Z,75.69
2023-04-23T22:35:15.033Z,75.33
2023-04-23T22:40:19.272Z,75.55
2023-04-23T22:45:22.569Z,76.64
2023-04-23T22:50:27.176Z,77.76
2023-04-23T22:55:30.617Z,78.71
2023-04-23T23:00:34.503Z,78.97
2023-04-23T23:05:37.777Z,78.53
2023-04-23T23:10:42.239Z,79.14
2023-04-23T23:15:45.745Z,79.14
2023-04-23T23:20:49.351Z,78.44
2023-04-23T23:25:53.393Z,77.00
2023-04-23T23:30:58.059Z,76.59
2023-04-23T23:36:01.999Z,76.06
2023-04-23T23:41:06.137Z,75.37
2023-04-23T23:46:10.954Z,74.38
2023-04-23T23:51:14.492Z,75.20
2023-04-23T23:56:18.132Z,74.57
